• Join FlightAware (Why Join?)
  • Login
  • US Flag 
04:25AM EDT


 

Airport Tracker/Info


-or-


 

Live Flight TrackerFlight Track Log ✈ N610JR ✈ 25-Jul-2013 ✈ KPIA - KARR

Flight Track Log - Related Links

Times and Time Zones

All times are in EDT time to prevent confusion due to time zone crossing. See the N610JR flight status page for this flight to view local times or setup timezone preferences in your user account.

Time Position Orientation Groundspeed Altitude Reporting Facility
EDT Latitude Longitude Course Direction KTS MPH feet Rate Location/Type
08:49PM 40.7656 -89.7128 25° Northeast 240 276 8,900  Level Chicago Center
08:50PM 40.8261 -89.6300 46° Northeast 306 352 8,900  Level Chicago Center
08:51PM 40.8964 -89.5731 31° Northeast 300 345 9,000  Climbing Chicago Center
08:52PM 40.9958 -89.3346 39° Northeast  Level Estimated
08:52PM 40.9681 -89.4889 42° Northeast 289 333 8,900  Level Chicago Center
08:53PM 41.0509 -89.2744 39° Northeast  Level Estimated
08:53PM 41.0317 -89.4267 36° Northeast 285 328 8,900  Level Chicago Center
08:54PM 41.0928 -89.3625 38° Northeast 282 325 9,000  Climbing Chicago Center
08:55PM 41.1439 -89.2831 49° Northeast 282 325 8,900 -60 Descending Chicago Center
08:56PM 41.1975 -89.2078 47° Northeast 282 325 8,900  Level Chicago Center
08:57PM 41.2597 -89.1372 40° Northeast 278 320 8,900  Level Chicago Center
08:58PM 41.3167 -89.0667 43° Northeast 281 323 8,900  Level Chicago Center
08:59PM 41.3881 -88.9847 41° Northeast 284 327 9,000  Climbing Chicago Center
09:00PM 41.4464 -88.9103 44° Northeast 290 334 9,000 -420 Level Chicago Center
09:01PM 41.5078 -88.8386 41° Northeast 295 339 8,200 -1,380 Descending Chicago Center
09:02PM 41.5558 -88.7586 51° Northeast 281 323 6,200 -1,980 Descending Chicago Center
09:03PM 41.6100 -88.6936 42° Northeast 266 306 4,200 -1,500 Descending Chicago Center
09:04PM 41.6611 -88.6306 43° Northeast 257 296 3,200 -780 Descending Chicago Center
09:05PM 41.7203 -88.5714 37° Northeast 236 272 2,600 -600 Descending Chicago Center
09:06PM 41.7664 -88.5344 31° Northeast 217 250 2,000 -840 Descending Chicago Center
09:07PM 41.7719 -88.4850 81° East 173 199 900 -1,080 Descending Chicago Center
09:09PM 41.7719 -88.4757 26° Northeast  Level Estimated